»·PEaware :: TUI9977 KBOS-EDDF

TUI9977 :: KBOS-EDDF

FLIGHT INFORMATION

Flight Status: Arrived
Operator: Unknown
More flights by this operator :: More flights under this callsign
Pilot: Drew L. (13237)
Aircraft: BOEING 737-800
(B738)
More flights by this aircraft type
Origin: KBOS Logan Intl
United States
Destination: EDDF Frankfurt/Main
Germany
More flights between these airports :: More routes between these airports
Route: CELTK4 CELTK DCT FRILL DCT KANNI N79A SUPRY/M075F390 NATU ELSOX/N0430F390 DCT SAMON DCT KONAN UL607 SPI UT180 PESOV T180 UNOKO DCT
File this flight plan on PilotEdge
Remarks:
Altitude:
(Current/Filed)
39,000ft
Speed:
(Current/Filed)
500kts
Departed: 04-Feb-17 11:03 PM
Arrived: 05-Feb-17 05:32 AM
Distance/Time
Traveled:
3178nm/6:29
Distance/Time
To Go:
Arrived

Flight Plot

Page will automatically refresh every two minutes.

Flight plan parsing failed; only flown route is shown


Map Options




Map Legend


Flown Route
Filed Route
Departure Airport
Arrival Airport
Navaid (VOR, NDB)
Fix

Horizontal Profiles

Position Reports

Time Latitude Longitude Heading Altitude Ground
Speed
04-Feb-17 22:57 42.351483 -71.011592 19 27ft 0kts
04-Feb-17 22:58 42.351484 -71.011591 19 27ft 0kts
04-Feb-17 22:59 42.351486 -71.011591 19 27ft 0kts
04-Feb-17 23:00 42.351487 -71.011590 19 27ft 0kts
04-Feb-17 23:01 42.351489 -71.011589 20 27ft 0kts
04-Feb-17 23:02 42.351490 -71.011588 20 27ft 0kts
04-Feb-17 23:03 42.357118 -71.008915 20 27ft 111kts
04-Feb-17 23:04 42.402529 -70.985513 17 2853ft 210kts
04-Feb-17 23:05 42.449538 -70.921587 72 6133ft 285kts
04-Feb-17 23:06 42.456852 -70.857654 95 8333ft 304kts
04-Feb-17 23:07 42.422269 -70.747572 120 11592ft 343kts
04-Feb-17 23:08 42.375360 -70.617728 115 13310ft 427kts
04-Feb-17 23:09 42.340220 -70.454967 105 15781ft 464kts
04-Feb-17 23:10 42.304639 -70.283723 106 18454ft 483kts
04-Feb-17 23:11 42.267037 -70.105672 104 20781ft 501kts
04-Feb-17 23:12 42.242166 -69.918057 99 22783ft 517kts
04-Feb-17 23:13 42.243481 -69.723861 75 24536ft 525kts
04-Feb-17 23:14 42.274514 -69.529130 74 26004ft 538kts
04-Feb-17 23:15 42.305083 -69.330294 73 27387ft 541kts
04-Feb-17 23:16 42.335664 -69.130818 73 28830ft 541kts
04-Feb-17 23:17 42.365373 -68.931790 73 30243ft 541kts
04-Feb-17 23:18 42.394633 -68.732605 73 31567ft 541kts
04-Feb-17 23:19 42.423476 -68.533542 73 32884ft 539kts
04-Feb-17 23:20 42.451911 -68.334765 73 34107ft 538kts
04-Feb-17 23:21 42.480097 -68.135049 74 35188ft 539kts
04-Feb-17 23:22 42.507895 -67.935551 74 36233ft 539kts
04-Feb-17 23:23 42.535368 -67.735689 74 37230ft 539kts
04-Feb-17 23:24 42.562503 -67.535578 74 38124ft 540kts
04-Feb-17 23:25 42.589604 -67.335288 74 38963ft 540kts
04-Feb-17 23:26 42.616033 -67.133698 75 39211ft 540kts
04-Feb-17 23:27 42.649371 -66.936512 63 39207ft 531kts
04-Feb-17 23:28 42.699894 -66.748170 63 39203ft 531kts
04-Feb-17 23:29 42.749705 -66.559055 63 39198ft 532kts
04-Feb-17 23:30 42.799935 -66.370035 63 39196ft 532kts
04-Feb-17 23:31 42.849694 -66.179757 64 39193ft 532kts
04-Feb-17 23:32 42.898867 -65.989687 64 39190ft 531kts
04-Feb-17 23:33 42.947620 -65.799573 64 39190ft 532kts
04-Feb-17 23:34 42.988012 -65.640856 64 39189ft 532kts
04-Feb-17 23:35 43.036238 -65.449921 64 39189ft 532kts
04-Feb-17 23:36 43.092270 -65.226099 64 39189ft 532kts
04-Feb-17 23:37 43.139712 -65.034886 65 39189ft 531kts
04-Feb-17 23:38 43.186853 -64.843306 65 39176ft 531kts
04-Feb-17 23:39 43.233701 -64.651317 65 39155ft 532kts
04-Feb-17 23:40 43.272469 -64.491195 65 39148ft 531kts
04-Feb-17 23:41 43.326505 -64.266147 65 39134ft 531kts
04-Feb-17 23:42 43.364704 -64.105684 65 39130ft 531kts
04-Feb-17 23:43 43.410208 -63.913025 65 39126ft 530kts
04-Feb-17 23:44 43.455357 -63.720209 66 39121ft 530kts
04-Feb-17 23:45 43.500139 -63.527289 66 39118ft 530kts
04-Feb-17 23:46 43.544841 -63.333015 66 39097ft 531kts
04-Feb-17 23:47 43.589062 -63.139120 66 39095ft 530kts
04-Feb-17 23:48 43.632911 -62.945139 66 39083ft 530kts
04-Feb-17 23:49 43.676380 -62.751107 67 39082ft 529kts
04-Feb-17 23:50 43.719442 -62.557148 67 39082ft 528kts
04-Feb-17 23:51 43.762246 -62.362561 67 39081ft 527kts
04-Feb-17 23:52 43.804518 -62.168674 67 39081ft 527kts
04-Feb-17 23:53 43.846408 -61.974748 68 39080ft 526kts
04-Feb-17 23:54 43.887975 -61.780519 68 39103ft 526kts
04-Feb-17 23:55 43.929239 -61.585897 68 39121ft 528kts
04-Feb-17 23:56 43.970434 -61.389750 68 39114ft 529kts
04-Feb-17 23:57 44.011196 -61.193801 69 39115ft 528kts
04-Feb-17 23:58 44.051508 -60.998144 69 39119ft 527kts
04-Feb-17 23:59 44.091529 -60.802007 69 39124ft 528kts
05-Feb-17 00:00 44.131250 -60.605377 70 39128ft 528kts
05-Feb-17 00:01 44.170829 -60.407590 70 39132ft 530kts
05-Feb-17 00:02 44.210014 -60.209772 71 39134ft 530kts
05-Feb-17 00:03 44.248882 -60.011559 71 39134ft 530kts
05-Feb-17 00:04 44.287380 -59.813220 71 39131ft 530kts
05-Feb-17 00:05 44.325539 -59.614591 71 39127ft 531kts
05-Feb-17 00:06 44.363452 -59.415198 71 39120ft 529kts
05-Feb-17 00:07 44.400872 -59.216322 72 39111ft 529kts
05-Feb-17 00:08 44.437906 -59.017276 72 39102ft 529kts
05-Feb-17 00:09 44.474611 -58.818098 72 39092ft 530kts
05-Feb-17 00:10 44.510978 -58.618591 73 39081ft 529kts
05-Feb-17 00:11 44.547103 -58.418211 73 39069ft 529kts
05-Feb-17 00:12 44.582775 -58.218151 73 39058ft 530kts
05-Feb-17 00:13 44.618110 -58.017770 73 39047ft 530kts
05-Feb-17 00:14 44.653096 -57.817138 74 39036ft 530kts
05-Feb-17 00:15 44.687758 -57.616107 74 39024ft 530kts
05-Feb-17 00:16 44.722151 -57.414337 74 39013ft 530kts
05-Feb-17 00:17 44.756098 -57.212867 74 39001ft 530kts
05-Feb-17 00:18 44.789669 -57.011290 75 38991ft 530kts
05-Feb-17 00:19 44.822912 -56.809296 75 38990ft 530kts
05-Feb-17 00:20 44.855832 -56.606898 75 38980ft 531kts
05-Feb-17 00:21 44.888501 -56.403583 75 38970ft 530kts
05-Feb-17 00:22 44.920681 -56.200856 76 38961ft 530kts
05-Feb-17 00:23 44.952512 -55.997821 76 38910ft 530kts
05-Feb-17 00:24 44.983985 -55.794512 76 38885ft 530kts
05-Feb-17 00:25 45.015091 -55.591119 77 38876ft 530kts
05-Feb-17 00:26 45.045937 -55.386729 77 38869ft 531kts
05-Feb-17 00:27 45.076326 -55.182844 77 38864ft 530kts
05-Feb-17 00:28 45.106350 -54.978718 78 38858ft 530kts
05-Feb-17 00:29 45.135996 -54.774470 78 38852ft 529kts
05-Feb-17 00:30 45.165227 -54.570305 78 38846ft 530kts
05-Feb-17 00:31 45.194203 -54.365262 78 38841ft 529kts
05-Feb-17 00:32 45.222714 -54.160683 79 38835ft 529kts
05-Feb-17 00:33 45.250801 -53.956312 79 38830ft 529kts
05-Feb-17 00:34 45.278557 -53.751493 79 38823ft 529kts
05-Feb-17 00:35 45.305961 -53.546371 80 38818ft 530kts
05-Feb-17 00:36 45.333101 -53.340260 80 38812ft 530kts
05-Feb-17 00:37 45.359823 -53.134311 80 38807ft 530kts
05-Feb-17 00:38 45.386187 -52.928099 81 38801ft 531kts
05-Feb-17 00:39 45.412194 -52.721585 81 38797ft 531kts
05-Feb-17 00:40 45.437842 -52.514782 81 38760ft 531kts
05-Feb-17 00:41 45.463551 -52.307102 81 38751ft 531kts
05-Feb-17 00:42 45.488223 -52.099871 82 38748ft 531kts
05-Feb-17 00:43 45.531930 -51.899336 63 38746ft 535kts
05-Feb-17 00:44 45.598360 -51.709787 63 38742ft 534kts
05-Feb-17 00:45 45.663880 -51.518428 63 38740ft 535kts
05-Feb-17 00:46 45.729287 -51.326997 64 38738ft 537kts
05-Feb-17 00:47 45.794173 -51.134353 65 38736ft 538kts
05-Feb-17 00:48 45.858803 -50.940505 65 38734ft 540kts
05-Feb-17 00:49 45.923250 -50.745672 65 38733ft 542kts
05-Feb-17 00:50 45.987701 -50.549324 66 38732ft 542kts
05-Feb-17 00:51 46.051546 -50.353340 66 38732ft 542kts
05-Feb-17 00:52 46.115133 -50.156659 66 38731ft 543kts
05-Feb-17 00:53 46.178456 -49.959292 66 38732ft 543kts
05-Feb-17 00:54 46.241452 -49.761427 66 38732ft 543kts
05-Feb-17 00:55 46.304272 -49.562579 67 38732ft 543kts
05-Feb-17 00:56 46.366550 -49.363911 67 38732ft 543kts
05-Feb-17 00:57 46.428546 -49.164585 67 38732ft 544kts
05-Feb-17 00:58 46.490330 -48.964379 67 38881ft 546kts
05-Feb-17 00:59 46.551908 -48.763225 67 39709ft 546kts
05-Feb-17 01:00 46.613305 -48.561049 68 40477ft 546kts
05-Feb-17 01:01 46.674259 -48.358706 68 40731ft 546kts
05-Feb-17 01:02 46.734784 -48.156153 68 40734ft 546kts
05-Feb-17 01:03 46.794956 -47.953122 68 40735ft 546kts
05-Feb-17 01:04 46.854896 -47.749206 68 40728ft 547kts
05-Feb-17 01:05 46.914549 -47.544573 69 40728ft 546kts
05-Feb-17 01:06 46.973653 -47.340123 69 40728ft 546kts
05-Feb-17 01:07 47.032393 -47.135217 69 40728ft 546kts
05-Feb-17 01:08 47.090785 -46.929800 69 40728ft 547kts
05-Feb-17 01:09 47.148813 -46.723914 70 40727ft 546kts
05-Feb-17 01:10 47.206722 -46.516683 70 40724ft 547kts
05-Feb-17 01:11 47.264059 -46.309716 70 40723ft 547kts
05-Feb-17 01:12 47.320995 -46.102400 71 40722ft 546kts
05-Feb-17 01:13 47.377585 -45.894534 71 40721ft 548kts
05-Feb-17 01:14 47.433957 -45.685633 71 40720ft 548kts
05-Feb-17 01:15 47.490124 -45.475627 71 40719ft 549kts
05-Feb-17 01:16 47.545854 -45.265372 71 40748ft 550kts
05-Feb-17 01:17 47.601331 -45.054165 72 40758ft 551kts
05-Feb-17 01:18 47.656553 -44.841995 72 40761ft 553kts
05-Feb-17 01:19 47.711581 -44.628609 72 40768ft 554kts
05-Feb-17 01:20 47.766449 -44.413841 72 40769ft 555kts
05-Feb-17 01:21 47.820765 -44.199221 72 40769ft 555kts
05-Feb-17 01:22 47.874673 -43.984183 73 40770ft 555kts
05-Feb-17 01:23 47.928176 -43.768707 73 40770ft 555kts
05-Feb-17 01:24 47.981351 -43.552478 73 40771ft 556kts
05-Feb-17 01:25 48.034295 -43.335078 73 40725ft 554kts
05-Feb-17 01:26 48.086536 -43.118452 73 40715ft 554kts
05-Feb-17 01:27 48.138421 -42.901169 74 40716ft 555kts
05-Feb-17 01:28 48.189998 -42.683009 74 40716ft 557kts
05-Feb-17 01:29 48.241241 -42.464073 74 40717ft 558kts
05-Feb-17 01:30 48.292416 -42.243181 74 40718ft 560kts
05-Feb-17 01:31 48.343085 -42.022214 74 40718ft 560kts
05-Feb-17 01:32 48.393275 -41.801053 75 40719ft 559kts
05-Feb-17 01:33 48.443038 -41.579465 75 40720ft 559kts
05-Feb-17 01:34 48.492377 -41.357436 75 40721ft 560kts
05-Feb-17 01:35 48.541461 -41.134186 75 40663ft 559kts
05-Feb-17 01:36 48.590023 -40.910920 75 40606ft 561kts
05-Feb-17 01:37 48.638246 -40.686783 75 40596ft 561kts
05-Feb-17 01:38 48.686065 -40.462077 75 40594ft 562kts
05-Feb-17 01:39 48.733540 -40.236492 75 40593ft 563kts
05-Feb-17 01:40 48.780731 -40.009727 75 40592ft 563kts
05-Feb-17 01:41 48.827468 -39.782577 75 40590ft 564kts
05-Feb-17 01:42 48.873680 -39.555391 76 40588ft 564kts
05-Feb-17 01:43 48.919482 -39.327596 76 40587ft 564kts
05-Feb-17 01:44 48.964824 -39.099443 76 40585ft 564kts
05-Feb-17 01:45 49.009893 -38.869965 76 40584ft 564kts
05-Feb-17 01:46 49.054357 -38.640849 76 40583ft 564kts
05-Feb-17 01:47 49.098357 -38.411376 76 40582ft 564kts
05-Feb-17 01:48 49.141815 -38.181978 78 40582ft 562kts
05-Feb-17 01:49 49.184448 -37.954128 78 40580ft 558kts
05-Feb-17 01:50 49.226796 -37.725012 78 40579ft 559kts
05-Feb-17 01:51 49.268565 -37.496194 78 40578ft 559kts
05-Feb-17 01:52 49.309888 -37.266953 78 40577ft 559kts
05-Feb-17 01:53 49.350795 -37.037112 78 40568ft 560kts
05-Feb-17 01:54 49.391275 -36.806720 78 40558ft 560kts
05-Feb-17 01:55 49.431448 -36.575078 78 40557ft 560kts
05-Feb-17 01:56 49.471002 -36.343966 78 40555ft 560kts
05-Feb-17 01:57 49.510125 -36.112308 79 40554ft 560kts
05-Feb-17 01:58 49.548754 -35.880465 79 40553ft 560kts
05-Feb-17 01:59 49.586949 -35.648076 79 40552ft 560kts
05-Feb-17 02:00 49.624757 -35.414829 79 40550ft 560kts
05-Feb-17 02:01 49.662028 -35.181656 79 40549ft 560kts
05-Feb-17 02:02 49.698818 -34.948197 79 40548ft 560kts
05-Feb-17 02:03 49.735178 -34.714128 79 40547ft 562kts
05-Feb-17 02:04 49.771075 -34.479655 79 40545ft 560kts
05-Feb-17 02:05 49.806595 -34.244186 79 40544ft 561kts
05-Feb-17 02:06 49.841520 -34.009175 79 40564ft 560kts
05-Feb-17 02:07 49.875972 -33.773802 80 40626ft 561kts
05-Feb-17 02:08 49.909944 -33.538116 80 40632ft 561kts
05-Feb-17 02:09 49.943453 -33.301984 80 40630ft 562kts
05-Feb-17 02:10 49.976637 -33.064420 80 40628ft 562kts
05-Feb-17 02:11 50.009221 -32.827363 80 40625ft 561kts
05-Feb-17 02:12 50.041238 -32.590604 80 40623ft 560kts
05-Feb-17 02:13 50.072815 -32.353215 80 40621ft 561kts
05-Feb-17 02:14 50.103956 -32.115139 80 40619ft 562kts
05-Feb-17 02:15 50.134711 -31.875963 80 40617ft 562kts
05-Feb-17 02:16 50.164871 -31.637302 80 40614ft 561kts
05-Feb-17 02:17 50.194507 -31.398621 80 40612ft 561kts
05-Feb-17 02:18 50.223633 -31.159821 80 40611ft 561kts
05-Feb-17 02:19 50.252368 -30.919886 80 40699ft 561kts
05-Feb-17 02:20 50.280482 -30.680769 80 40750ft 560kts
05-Feb-17 02:21 50.308103 -30.441369 80 40753ft 561kts
05-Feb-17 02:22 50.335256 -30.201484 80 40751ft 560kts
05-Feb-17 02:23 50.361924 -29.961247 80 40749ft 560kts
05-Feb-17 02:24 50.388171 -29.720049 80 40757ft 561kts
05-Feb-17 02:25 50.413833 -29.479403 81 40757ft 560kts
05-Feb-17 02:26 50.438966 -29.238810 81 40755ft 559kts
05-Feb-17 02:27 50.463587 -28.998111 80 40754ft 559kts
05-Feb-17 02:28 50.487754 -28.756738 80 40752ft 558kts
05-Feb-17 02:29 50.511358 -28.515768 81 40750ft 559kts
05-Feb-17 02:30 50.534483 -28.274363 81 40748ft 559kts
05-Feb-17 02:31 50.557096 -28.032855 81 40746ft 559kts
05-Feb-17 02:32 50.579214 -27.791064 81 40744ft 559kts
05-Feb-17 02:33 50.600871 -27.548590 81 40741ft 558kts
05-Feb-17 02:34 50.621950 -27.306762 81 40739ft 558kts
05-Feb-17 02:35 50.642520 -27.064824 81 40741ft 557kts
05-Feb-17 02:36 50.662554 -26.823086 81 40789ft 557kts
05-Feb-17 02:37 50.682089 -26.581141 81 40792ft 557kts
05-Feb-17 02:38 50.701172 -26.338360 81 40791ft 557kts
05-Feb-17 02:39 50.719724 -26.095721 81 40789ft 557kts
05-Feb-17 02:40 50.737740 -25.853328 81 40788ft 556kts
05-Feb-17 02:41 50.755232 -25.611068 81 40785ft 555kts
05-Feb-17 02:42 50.772196 -25.368996 81 40784ft 555kts
05-Feb-17 02:43 50.788688 -25.126306 81 40778ft 554kts
05-Feb-17 02:44 50.804623 -24.884272 81 40745ft 554kts
05-Feb-17 02:45 50.820044 -24.642283 81 40744ft 554kts
05-Feb-17 02:46 50.834962 -24.400157 81 40742ft 553kts
05-Feb-17 02:47 50.849369 -24.158058 81 40742ft 553kts
05-Feb-17 02:48 50.863325 -23.914994 81 40745ft 552kts
05-Feb-17 02:49 50.876675 -23.672749 82 40750ft 553kts
05-Feb-17 02:50 50.889660 -23.430198 81 40752ft 554kts
05-Feb-17 02:51 50.902065 -23.187572 82 40753ft 552kts
05-Feb-17 02:52 50.913921 -22.945701 82 40716ft 552kts
05-Feb-17 02:53 50.925355 -22.702520 82 40705ft 551kts
05-Feb-17 02:54 50.936206 -22.461077 82 40685ft 549kts
05-Feb-17 02:55 50.946581 -22.218976 82 40680ft 550kts
05-Feb-17 02:56 50.956214 -21.977236 82 40681ft 550kts
05-Feb-17 02:57 50.965591 -21.735915 82 40793ft 547kts
05-Feb-17 02:58 50.974313 -21.494745 83 40816ft 549kts
05-Feb-17 02:59 50.982607 -21.254015 83 40820ft 546kts
05-Feb-17 03:00 50.990423 -21.013209 83 40698ft 547kts
05-Feb-17 03:01 50.997683 -20.773033 84 40659ft 546kts
05-Feb-17 03:02 51.004420 -20.532996 84 40655ft 545kts
05-Feb-17 03:03 51.010728 -20.291880 84 40655ft 544kts
05-Feb-17 03:04 51.016694 -20.052310 84 40652ft 545kts
05-Feb-17 03:05 51.021873 -19.812817 84 40657ft 541kts
05-Feb-17 03:06 51.026638 -19.574710 84 40653ft 539kts
05-Feb-17 03:07 51.030925 -19.335699 85 40655ft 541kts
05-Feb-17 03:08 51.034753 -19.097179 85 40656ft 538kts
05-Feb-17 03:09 51.038150 -18.859519 85 40654ft 536kts
05-Feb-17 03:10 51.040786 -18.622542 85 40656ft 539kts
05-Feb-17 03:11 51.043238 -18.385054 85 40653ft 536kts
05-Feb-17 03:12 51.045051 -18.147408 86 40656ft 537kts
05-Feb-17 03:13 51.046360 -17.909980 86 40659ft 535kts
05-Feb-17 03:14 51.047378 -17.674248 86 40656ft 533kts
05-Feb-17 03:15 51.047795 -17.438090 87 40659ft 536kts
05-Feb-17 03:16 51.047590 -17.201976 87 40657ft 536kts
05-Feb-17 03:17 51.047124 -16.966218 87 40663ft 533kts
05-Feb-17 03:18 51.046119 -16.729773 87 40670ft 533kts
05-Feb-17 03:19 51.044657 -16.494447 87 40685ft 534kts
05-Feb-17 03:20 51.042690 -16.259297 87 40685ft 532kts
05-Feb-17 03:21 51.040376 -16.024459 87 40688ft 532kts
05-Feb-17 03:22 51.037424 -15.790255 88 40689ft 527kts
05-Feb-17 03:23 51.034083 -15.557565 88 40690ft 527kts
05-Feb-17 03:24 51.030294 -15.324941 88 40692ft 527kts
05-Feb-17 03:25 51.026052 -15.092554 88 40678ft 527kts
05-Feb-17 03:26 51.021357 -14.860491 89 40677ft 526kts
05-Feb-17 03:27 51.016191 -14.627827 89 40680ft 525kts
05-Feb-17 03:28 51.011012 -14.396128 89 40683ft 526kts
05-Feb-17 03:29 51.004759 -14.164819 90 40685ft 525kts
05-Feb-17 03:30 51.004631 -13.934241 80 40689ft 520kts
05-Feb-17 03:31 51.021714 -13.707036 79 40692ft 518kts
05-Feb-17 03:32 51.038093 -13.478971 80 40695ft 518kts
05-Feb-17 03:33 51.055060 -13.252091 80 40699ft 517kts
05-Feb-17 03:34 51.071197 -13.025529 80 40703ft 516kts
05-Feb-17 03:35 51.086694 -12.798929 80 40707ft 516kts
05-Feb-17 03:36 51.101673 -12.572543 80 40711ft 515kts
05-Feb-17 03:37 51.116221 -12.345649 81 40714ft 514kts
05-Feb-17 03:38 51.130258 -12.119713 81 40718ft 513kts
05-Feb-17 03:39 51.143839 -11.893972 81 40722ft 512kts
05-Feb-17 03:40 51.156947 -11.668751 81 40726ft 511kts
05-Feb-17 03:41 51.167543 -11.480906 82 40729ft 511kts
05-Feb-17 03:42 51.181909 -11.217100 82 40734ft 511kts
05-Feb-17 03:43 51.193704 -10.991752 82 40738ft 510kts
05-Feb-17 03:44 51.205054 -10.766534 82 40741ft 510kts
05-Feb-17 03:45 51.215964 -10.541357 83 40744ft 510kts
05-Feb-17 03:46 51.226472 -10.315435 83 40747ft 509kts
05-Feb-17 03:47 51.236501 -10.090400 83 40748ft 509kts
05-Feb-17 03:48 51.246078 -9.865785 84 40754ft 506kts
05-Feb-17 03:49 51.255201 -9.641677 84 40774ft 507kts
05-Feb-17 03:50 51.262477 -9.454834 84 40778ft 507kts
05-Feb-17 03:51 51.272185 -9.192589 84 40781ft 506kts
05-Feb-17 03:52 51.278740 -9.005833 85 40780ft 506kts
05-Feb-17 03:53 51.286204 -8.781968 85 40779ft 505kts
05-Feb-17 03:54 51.293234 -8.558297 85 40777ft 504kts
05-Feb-17 03:55 51.299825 -8.335044 85 40766ft 503kts
05-Feb-17 03:56 51.305983 -8.112135 86 40761ft 502kts
05-Feb-17 03:57 51.313003 -7.851895 86 40754ft 499kts
05-Feb-17 03:58 51.317357 -7.667170 86 40748ft 500kts
05-Feb-17 03:59 51.321949 -7.445327 87 40741ft 500kts
05-Feb-17 04:00 51.326502 -7.186466 87 40733ft 500kts
05-Feb-17 04:01 51.329693 -6.964420 87 40708ft 500kts
05-Feb-17 04:02 51.332550 -6.779005 87 40693ft 499kts
05-Feb-17 04:03 51.336029 -6.557663 87 40687ft 498kts
05-Feb-17 04:04 51.338740 -6.336454 88 40692ft 497kts
05-Feb-17 04:05 51.340924 -6.115579 88 40704ft 497kts
05-Feb-17 04:06 51.342657 -5.894820 88 40706ft 496kts
05-Feb-17 04:07 51.343966 -5.673596 89 40710ft 496kts
05-Feb-17 04:08 51.344854 -5.453084 89 40713ft 496kts
05-Feb-17 04:09 51.345326 -5.232554 89 40718ft 496kts
05-Feb-17 04:10 51.345384 -5.012200 90 40736ft 495kts
05-Feb-17 04:11 51.345030 -4.792137 90 40731ft 495kts
05-Feb-17 04:12 51.344261 -4.571552 90 40729ft 494kts
05-Feb-17 04:13 51.343084 -4.352006 90 40726ft 494kts
05-Feb-17 04:14 51.341497 -4.132582 91 40716ft 494kts
05-Feb-17 04:15 51.339503 -3.913297 91 40710ft 492kts
05-Feb-17 04:16 51.337105 -3.694545 91 40703ft 492kts
05-Feb-17 04:17 51.334289 -3.475107 91 40699ft 492kts
05-Feb-17 04:18 51.331076 -3.256452 91 40719ft 493kts
05-Feb-17 04:19 51.327443 -3.037172 91 40715ft 494kts
05-Feb-17 04:20 51.323407 -2.818158 91 40701ft 493kts
05-Feb-17 04:21 51.318967 -2.599402 91 40698ft 492kts
05-Feb-17 04:22 51.314113 -2.380432 92 40697ft 492kts
05-Feb-17 04:23 51.308869 -2.162208 92 40690ft 492kts
05-Feb-17 04:24 51.303227 -1.944326 92 40676ft 490kts
05-Feb-17 04:25 51.297189 -1.726801 92 40670ft 491kts
05-Feb-17 04:26 51.290748 -1.509294 93 40666ft 491kts
05-Feb-17 04:27 51.283879 -1.291092 93 40660ft 491kts
05-Feb-17 04:28 51.276619 -1.073376 93 40645ft 492kts
05-Feb-17 04:29 51.268950 -0.855566 93 40647ft 492kts
05-Feb-17 04:30 51.260877 -0.637828 93 40664ft 492kts
05-Feb-17 04:31 51.252400 -0.420170 93 40649ft 492kts
05-Feb-17 04:32 51.243491 -0.201878 93 40627ft 492kts
05-Feb-17 04:33 51.234210 0.015544 94 40632ft 491kts
05-Feb-17 04:34 51.224607 0.231153 95 40639ft 486kts
05-Feb-17 04:35 51.214628 0.446235 95 40640ft 487kts
05-Feb-17 04:36 51.204221 0.661910 95 40636ft 486kts
05-Feb-17 04:37 51.193454 0.876815 95 40630ft 487kts
05-Feb-17 04:38 51.182286 1.091790 96 40620ft 487kts
05-Feb-17 04:39 51.170738 1.306460 96 40616ft 486kts
05-Feb-17 04:40 51.158991 1.520935 96 40610ft 487kts
05-Feb-17 04:41 51.146795 1.736175 97 40598ft 486kts
05-Feb-17 04:42 51.133800 1.950343 97 40591ft 486kts
05-Feb-17 04:43 51.121956 2.164722 95 40589ft 487kts
05-Feb-17 04:44 51.110543 2.379122 97 40587ft 487kts
05-Feb-17 04:45 51.098144 2.593104 97 40582ft 486kts
05-Feb-17 04:46 51.068019 2.800822 108 40587ft 482kts
05-Feb-17 04:47 51.029950 3.005776 108 40602ft 482kts
05-Feb-17 04:48 50.992597 3.210241 108 40594ft 483kts
05-Feb-17 04:49 50.954838 3.414389 108 40595ft 483kts
05-Feb-17 04:50 50.916233 3.618026 109 40593ft 483kts
05-Feb-17 04:51 50.876920 3.821065 109 40590ft 482kts
05-Feb-17 04:52 50.837031 4.024353 110 40593ft 483kts
05-Feb-17 04:53 50.797820 4.227283 109 40598ft 483kts
05-Feb-17 04:54 50.757632 4.429588 110 40602ft 483kts
05-Feb-17 04:55 50.717136 4.631516 109 40606ft 483kts
05-Feb-17 04:56 50.677910 4.833993 109 40609ft 483kts
05-Feb-17 04:57 50.637138 5.036011 110 40611ft 483kts
05-Feb-17 04:58 50.595974 5.236911 110 40609ft 483kts
05-Feb-17 04:59 50.554112 5.437433 111 40609ft 483kts
05-Feb-17 05:00 50.511859 5.637589 110 40604ft 483kts
05-Feb-17 05:01 50.473745 5.840950 108 40595ft 484kts
05-Feb-17 05:02 50.436097 6.043775 109 40582ft 484kts
05-Feb-17 05:03 50.397294 6.245857 109 40582ft 485kts
05-Feb-17 05:04 50.387088 6.455590 84 40594ft 492kts
05-Feb-17 05:05 50.406003 6.668467 83 40608ft 491kts
05-Feb-17 05:06 50.425357 6.880426 83 40639ft 491kts
05-Feb-17 05:07 50.443379 7.091697 84 39829ft 488kts
05-Feb-17 05:08 50.441624 7.299993 113 37699ft 475kts
05-Feb-17 05:09 50.350763 7.426561 171 34335ft 435kts
05-Feb-17 05:10 50.243120 7.516407 145 31001ft 452kts
05-Feb-17 05:11 50.147125 7.641059 146 26286ft 460kts
05-Feb-17 05:12 50.073395 7.808425 115 21797ft 468kts
05-Feb-17 05:13 50.021394 7.986184 116 18333ft 437kts
05-Feb-17 05:14 50.011788 8.167262 82 15008ft 415kts
05-Feb-17 05:15 50.027986 8.339308 82 12093ft 383kts
05-Feb-17 05:16 50.041039 8.488822 83 11438ft 317kts
05-Feb-17 05:17 50.053448 8.614647 69 10719ft 286kts
05-Feb-17 05:18 50.112184 8.692828 30 9670ft 273kts
05-Feb-17 05:19 50.175746 8.752671 31 9655ft 249kts
05-Feb-17 05:20 50.230357 8.804703 31 9653ft 219kts
05-Feb-17 05:21 50.264172 8.873462 104 9615ft 212kts
05-Feb-17 05:22 50.229081 8.933746 136 9132ft 177kts
05-Feb-17 05:23 50.195282 8.991600 138 7904ft 187kts
05-Feb-17 05:24 50.150105 8.977468 217 6509ft 178kts
05-Feb-17 05:25 50.122335 8.915972 248 5147ft 177kts
05-Feb-17 05:26 50.107138 8.847925 247 4267ft 156kts
05-Feb-17 05:27 50.094153 8.789043 252 3294ft 141kts
05-Feb-17 05:28 50.082081 8.733414 244 2319ft 129kts
05-Feb-17 05:29 50.067770 8.683494 249 1392ft 125kts
05-Feb-17 05:30 50.055577 8.631005 250 915ft 129kts
05-Feb-17 05:31 50.043387 8.579625 249 380ft 124kts
05-Feb-17 05:32 50.039022 8.559206 27 372ft 7kts
05-Feb-17 05:33 50.041295 8.562817 69 372ft 20kts
05-Feb-17 05:34 50.043883 8.573631 70 372ft 25kts
05-Feb-17 05:35 50.046094 8.582774 56 372ft 11kts
05-Feb-17 05:36 50.049164 8.583283 342 372ft 11kts
05-Feb-17 05:37 50.049429 8.583112 335 372ft 0kts
05-Feb-17 05:38 50.049429 8.583112 335 372ft 0kts
05-Feb-17 05:39 50.049429 8.583112 335 372ft 0kts
05-Feb-17 05:40 50.049429 8.583112 335 372ft 0kts
05-Feb-17 05:41 50.049429 8.583112 335 372ft 0kts
05-Feb-17 05:42 50.049429 8.583112 335 372ft 0kts

Navigation Log

Ident Type
Flight plan parsing failed, navigation log unavailable